Flight Track Log - Related Links

Times and Time Zones

All times are in EDT time to prevent confusion due to time zone crossing. See the ASQ4475 flight status page for this flight to view local times or setup timezone preferences in your user account.

Time Position Orientation Groundspeed Altitude Reporting Facility
EDT Latitude Longitude Course Direction KTS MPH feet Rate Location/Type
Sat 09:03:00 PM 29.9167 -93.3930 90° East  Level FlightAware Approximate
Sat 09:04:00 PM 29.9243 -93.2666 84° East  Level FlightAware Approximate
Sat 09:05:00 PM 29.9366 -93.1406 82° East  Level FlightAware Approximate
Sat 09:06:00 PM 29.9524 -93.0151 82° East  Level FlightAware Approximate
Sat 09:07:00 PM 29.9667 -92.8894 90° East  Level FlightAware Approximate
Sat 09:08:00 PM 29.9755 -92.7632 82° East  Level FlightAware Approximate
Sat 09:09:00 PM 29.9843 -92.6370 85° East  Level FlightAware Approximate
Sat 09:10:00 PM 29.9937 -92.5106 85° East  Level FlightAware Approximate
Sat 09:11:00 PM 30.0030 -92.3841 85° East  Level FlightAware Approximate
Sat 09:12:00 PM 30.0122 -92.2576 85° East  Level FlightAware Approximate
Sat 09:13:00 PM 30.0213 -92.1311 85° East  Level FlightAware Approximate
Sat 09:14:00 PM 30.0302 -92.0046 85° East  Level FlightAware Approximate
Sat 09:15:00 PM 30.0391 -91.8780 85° East  Level FlightAware Approximate
Sat 09:16:00 PM 30.0478 -91.7514 85° East  Level FlightAware Approximate
Sat 09:17:00 PM 30.0563 -91.6248 85° East  Level FlightAware Approximate
Sat 09:18:00 PM 30.0648 -91.4982 86° East  Level FlightAware Approximate
Sat 09:19:00 PM 30.0731 -91.3716 86° East  Level FlightAware Approximate
Sat 09:20:00 PM 30.0814 -91.2449 86° East  Level FlightAware Approximate
Sat 09:21:00 PM 30.0894 -91.1182 86° East  Level FlightAware Approximate
Sat 09:22:00 PM 30.0974 -90.9915 86° East  Level FlightAware Approximate
Sat 09:23:00 PM 30.1206 -90.8679 74° East  Level FlightAware Approximate
Sat 09:24:00 PM 30.1511 -90.7458 74° East  Level FlightAware Approximate
Sat 09:25:00 PM 30.1812 -90.6235 74° East  Level FlightAware Approximate
Sat 09:26:00 PM 30.2108 -90.5010 74° East  Level FlightAware Approximate
Sat 09:27:00 PM 30.2402 -90.3785 74° East  Level FlightAware Approximate
Sat 09:28:00 PM 30.2696 -90.2559 74° East  Level FlightAware Approximate
Sat 09:29:00 PM 30.2989 -90.1331 75° East  Level FlightAware Approximate
Sat 09:30:00 PM 30.3280 -90.0104 75° East  Level FlightAware Approximate
Sat 09:31:00 PM 30.3570 -89.8875 75° East  Level FlightAware Approximate
Sat 09:32:00 PM 30.3859 -89.7646 75° East  Level FlightAware Approximate
Sat 09:33:00 PM 30.4147 -89.6416 75° East  Level FlightAware Approximate
Sat 09:34:00 PM 30.4520 -89.5226 74° East  Level FlightAware Approximate
Sat 09:35:00 PM 30.4816 -89.3998 74° East  Level FlightAware Approximate
Sat 09:36:00 PM 30.5110 -89.2769 74° East  Level FlightAware Approximate
Sat 09:37:00 PM 30.5393 -89.1536 77° East  Level FlightAware Approximate
Sat 09:38:00 PM 30.5642 -89.0292 77° East  Level FlightAware Approximate
Sat 09:39:00 PM 30.5891 -88.9049 77° East  Level FlightAware Approximate
Sat 09:40:00 PM 30.6194 -88.7823 72° East  Level FlightAware Approximate
Sat 09:41:00 PM 30.6516 -88.6601 75° East  Level FlightAware Approximate
Sat 09:42:00 PM 30.6806 -88.5369 75° East  Level FlightAware Approximate
Sat 09:43:00 PM 30.7096 -88.4136 75° East  Level FlightAware Approximate
Sat 09:44:00 PM 30.7202 -88.2869 86° East  Level FlightAware Approximate
Sat 09:45:00 PM 30.7273 -88.1593 86° East  Level FlightAware Approximate
Sat 09:46:00 PM 30.7346 -88.0318 85° East  Level FlightAware Approximate
Sat 09:47:00 PM 30.7438 -87.9043 85° East  Level FlightAware Approximate
Sat 09:48:00 PM 30.7511 -87.7768 79° East  Level FlightAware Approximate
Sat 09:49:00 PM 30.7667 -87.6507 90° East  Level FlightAware Approximate
Sat 09:50:00 PM 30.7677 -87.5228 83° East  Level FlightAware Approximate
Sat 09:51:00 PM 30.7804 -87.3957 83° East  Level FlightAware Approximate
Sat 09:52:00 PM 30.7833 -87.2680 90° East  Level FlightAware Approximate
Sat 09:53:00 PM 30.6767 -87.2422 164° South  Level FlightAware Approximate
Sat 09:54:00 PM 30.5715 -87.2076 170° South  Level FlightAware Approximate
Sat 09:55:00 PM 30.4667 -87.1833 168° South  Level FlightAware Approximate
Sat 09:56:00 PM 30.4734 -87.1866 168° South  Level Estimated
Sat 09:57:00 PM 30.4734 -87.1866 168° South  Level Estimated
Sat 09:58:00 PM 30.4734 -87.1866 168° South  Level Estimated
Sat 09:59:00 PM 30.4734 -87.1866 168° South  Level Estimated
Sat 10:00:00 PM 30.4734 -87.1866 168° South  Level Estimated
Sat 10:01:00 PM 30.4734 -87.1866 168° South  Level Estimated
Sat 10:02:00 PM 30.4734 -87.1866 168° South  Level Estimated
Sat 10:03:00 PM 30.4734 -87.1866 168° South  Level Estimated
Sat 10:04:00 PM 30.4734 -87.1866 168° South  Level Estimated
Sat 10:05:00 PM 30.4734 -87.1866 168° South  Level Estimated
Sat 10:06:00 PM 30.4734 -87.1866 168° South  Level Estimated
Sat 10:07:00 PM 30.4734 -87.1866 168° South  Level Estimated
Sat 10:08:00 PM 30.4734 -87.1866 168° South  Level Estimated
Sat 10:09:00 PM 30.4734 -87.1866 168° South  Level Estimated
Sat 10:10:00 PM 30.4734 -87.1866 168° South  Level Estimated
Sat 10:11:00 PM 30.4734 -87.1866 168° South  Level Estimated

Login

Don't have an account? Register now (free) for customized features, flight alerts, and more!